KANW/ANW METAR and TAF weather

Enter ICAO airport designator
Station Type Date Time Source
KANW METAR 2021/09/23 18:55 UTC NOAA

KANW 231855Z AUTO 20008KT 10SM CLR 29/03 A2990 RMK AO2 T02930034


Station Type Date Time Source
KANW Decoded METAR 2021/09/23 18:55 UTC NOAA

Ainsworth Municipal, NE, United States (KANW) 42-35N 100-00W
Sep 23, 2021 - 02:55 PM EDT / 2021.09.23 1855 UTC
Wind: from the SSW (200 degrees) at 9 MPH (8 KT):0
Visibility: 10 mile(s):0
Sky conditions: clear
Temperature: 84.7 F (29.3 C)
Dew Point: 38.1 F (3.4 C)
Relative Humidity: 19%
Pressure (altimeter): 29.9 in. Hg (1012 hPa)
ob: KANW 231855Z AUTO 20008KT 10SM CLR 29/03 A2990 RMK AO2 T02930034
cycle: 19

Station Type Date Time Source
KANW TAF UTC NOAA

Error!

Example: see airport list